الصفحة الرئيسية
METAR-TAF:

METAR-TAF

مطار :

Ponta Delgada, الأزور, البرتغال

دائرة عرض: 37-44N, خط طول: 025-42W, ارتفاع: 71 متر

مراقبة الطقس الحالي

تاريخ ووقت الإصدار 41 دقيقة قبل الساعة 03:30UTC
ريح 5 عقدة من الشمال
درجة الحرارة 20°درجة مئوية
الرطوبة 78%
ضغط 1029 hPa
الرؤية 10 كم أو أكثر
غيوم قليلة على ارتفاع 2000 قدم

METAR: LPPD 240330Z 01005KT 9999 FEW020 20/16 Q1029

زمن: 04:11 (04:11 UTC)

توقعات

تاريخ ووقت الإصدار 5ساعات و 11 دقيقة قبل الساعة 23:00UTC
التوقعات صالحة من24 الساعة 00 UTC إلى 24 الساعة 24 UTC
ريح 5 عقدةمن اتجاهات متغيرة
الرؤية 10 كم أو أكثر
غيوم متفرقة على ارتفاع 2000 قدم
أصبح
من 24 الساعة 10 UTC إلى 24 الساعة 12 UTC
ريح 10 عقدة من الشرق/الجنوب الشرقي
أصبح
من 24 الساعة 16 UTC إلى 24 الساعة 18 UTC
ريح 8 عقدة من الشمال/الشمال الشرقي

TAF: LPPD 232300Z 2400/2424 VRB05KT 9999 SCT020 BECMG 2410/2412 12010KT BECMG 2416/2418 03008KT

أرصاد الطقس والتوقعات من أكثر من 4000 مطار (تقارير الطقس للمطار METAR والتنبؤ بالطقس بالمطارTAF).

المحطات المتاحة هي النقط الصفراء والحمراء على الخريطة.

حرك المؤشر فوق النقطة لمعرفة اسم المحطة.

ثم انقر لمعرفة أرصاد وتوقعات الطقس.

لتغيير الخارطة: اضغط على الأزرار الخضراء مع رمز الصليب الأسود للتكبير. على الزر الأخضر مع شرطة للتصغير، أو على الأسهم الخضراء للخرائط المجاورة.


METAR-TAF: